Terminal Aerodrome Forecast
Issued by NWS Dodge City, KS

Home | Current Version | Previous Version | Text Only | Print | Product List | Glossary On
Versions: 1 2 3 4 5 6 7 8 9 10 11 12 13 14 15 16 17 18 19 20 21 22 23 24 25 26 27 28 29 30 31
000
FTUS43 KDDC 240441 AAA
TAFDDC
TAF AMD
KDDC 240441Z 2405/2424 16015G25KT P6SM SKC WS020/18045KT
     FM241400 20019G29KT P6SM FEW250
     FM241700 23014G22KT P6SM FEW250
     FM242300 14007KT P6SM FEW200=

USA.gov is the U.S. government's official web portal to all federal, state and local government web resources and services.